ナンディ の空港の天気 - METARとTAF

ナンディ国際空港 ( NFFN / NAN ) - フィジー ナンディ (ビティレブ島)
飛行場実況気象(Metar)
観測時間04/22 05:00 FJT (04/21 17:00 UTC)
風向・風速不定 1m/s
視程10km以上
天気現象弱いしゅう雨
全天の4割程度の雲 雲底高度 850m
全天の4割程度の雲 雲底高度 1460m
全天の8割程度の雲 雲底高度 3350m
気温24℃
湿度100%
気圧1012hPa
METARNFFN 211700Z VRB02KT 9999 -SHRA SCT028 SCT048 BKN110 24/24 Q1012 TEMPO 1700/1800 5000 SHRA TEMPO 1800/1900 3000 TSRA
過去の天気等 Google飛行場航空写真 Wunderground天気予報

過去48時間のMETAR

飛行場予報(TAF)
発表時間: 4/22 03:19 FJT (4/21 15:19 UTC)
予報対象時間: 22日3時 FJT ~ 23日0時 FJT
風向・風速南東 2m/s
視程10km以上
天気現象弱いしゅう雨
全天の4割程度の雲 雲底高度 850m
全天の4割程度の雲 雲底高度 1370m
全天の8割程度の雲 雲底高度 3050m
22日4時 FJT ~ 22日6時 FJT に一時的に
視程5000m
天気現象しゅう雨
全天の8割程度の雲 雲底高度 460m
22日6時 FJT ~ 22日19時 FJT に一時的に
視程3000m
天気現象雷雨
全天の8割程度の雲 雲底高度 460m
少しの積乱雲 雲底高度 550m
22日19時 FJT ~ 22日24時 FJT に一時的に
視程5000m
天気現象しゅう雨
全天の8割程度の雲 雲底高度 460m
TAF AMD NFFN 211519Z 2115/2212 13004KT 9999 -SHRA SCT028 SCT045 BKN100
TEMPO 2116/2118 5000 SHRA BKN015
TEMPO 2118/2207 3000 TSRA BKN015 FEW018CB
TEMPO 2207/2212 5000 SHRA BKN015